sensor_id;sensor_type;location;lat;lon;timestamp;temperature;humidity
38514;DHT22;24282;48.400;10.808;2023-03-12T00:01:47;0.60;69.00
38514;DHT22;24282;48.400;10.808;2023-03-12T00:04:13;0.50;68.90
38514;DHT22;24282;48.400;10.808;2023-03-12T00:06:39;0.50;69.00
38514;DHT22;24282;48.400;10.808;2023-03-12T00:09:04;0.50;69.10
38514;DHT22;24282;48.400;10.808;2023-03-12T00:11:30;0.40;69.20
38514;DHT22;24282;48.400;10.808;2023-03-12T00:13:57;0.40;69.50
38514;DHT22;24282;48.400;10.808;2023-03-12T00:16:25;0.30;69.50
38514;DHT22;24282;48.400;10.808;2023-03-12T00:18:52;0.30;69.70
38514;DHT22;24282;48.400;10.808;2023-03-12T00:21:19;0.30;70.00
38514;DHT22;24282;48.400;10.808;2023-03-12T00:23:49;0.30;70.00
38514;DHT22;24282;48.400;10.808;2023-03-12T00:26:16;0.30;69.90
38514;DHT22;24282;48.400;10.808;2023-03-12T00:28:42;0.30;69.90
38514;DHT22;24282;48.400;10.808;2023-03-12T00:33:43;0.30;69.90
38514;DHT22;24282;48.400;10.808;2023-03-12T00:36:10;0.20;70.00
38514;DHT22;24282;48.400;10.808;2023-03-12T00:38:36;0.20;69.90
38514;DHT22;24282;48.400;10.808;2023-03-12T00:41:02;0.20;70.00
38514;DHT22;24282;48.400;10.808;2023-03-12T00:43:28;0.20;70.00
38514;DHT22;24282;48.400;10.808;2023-03-12T00:45:53;0.20;70.10
38514;DHT22;24282;48.400;10.808;2023-03-12T00:48:19;0.20;70.20
38514;DHT22;24282;48.400;10.808;2023-03-12T00:50:45;0.20;70.20
38514;DHT22;24282;48.400;10.808;2023-03-12T00:53:11;0.20;70.10
38514;DHT22;24282;48.400;10.808;2023-03-12T00:55:37;0.20;69.90
38514;DHT22;24282;48.400;10.808;2023-03-12T00:58:02;0.10;69.90
38514;DHT22;24282;48.400;10.808;2023-03-12T01:00:28;0.10;69.90
38514;DHT22;24282;48.400;10.808;2023-03-12T01:02:54;0.10;69.90
38514;DHT22;24282;48.400;10.808;2023-03-12T01:05:20;0.10;70.00
38514;DHT22;24282;48.400;10.808;2023-03-12T01:07:46;0.00;69.90
38514;DHT22;24282;48.400;10.808;2023-03-12T01:10:14;0.00;70.00
38514;DHT22;24282;48.400;10.808;2023-03-12T01:12:41;0.00;70.00
38514;DHT22;24282;48.400;10.808;2023-03-12T01:15:08;0.00;70.10
38514;DHT22;24282;48.400;10.808;2023-03-12T01:17:34;0.00;70.10
38514;DHT22;24282;48.400;10.808;2023-03-12T01:20:00;0.00;70.20
38514;DHT22;24282;48.400;10.808;2023-03-12T01:22:26;0.00;70.30
38514;DHT22;24282;48.400;10.808;2023-03-12T01:24:52;0.00;70.20
38514;DHT22;24282;48.400;10.808;2023-03-12T01:27:17;0.00;70.20
38514;DHT22;24282;48.400;10.808;2023-03-12T01:29:45;0.00;70.20
38514;DHT22;24282;48.400;10.808;2023-03-12T01:32:11;0.00;70.20
38514;DHT22;24282;48.400;10.808;2023-03-12T01:34:36;0.00;70.20
38514;DHT22;24282;48.400;10.808;2023-03-12T01:37:02;0.00;70.20
38514;DHT22;24282;48.400;10.808;2023-03-12T01:39:28;-3276.70;70.20
38514;DHT22;24282;48.400;10.808;2023-03-12T01:41:54;-3276.70;70.30
38514;DHT22;24282;48.400;10.808;2023-03-12T01:44:20;-3276.70;70.40
38514;DHT22;24282;48.400;10.808;2023-03-12T01:46:45;-3276.60;70.70
38514;DHT22;24282;48.400;10.808;2023-03-12T01:49:27;-3276.60;71.00
38514;DHT22;24282;48.400;10.808;2023-03-12T01:52:08;-3276.60;71.00
38514;DHT22;24282;48.400;10.808;2023-03-12T01:55:02;-3276.50;71.10
38514;DHT22;24282;48.400;10.808;2023-03-12T01:57:52;-3276.50;71.00
38514;DHT22;24282;48.400;10.808;2023-03-12T02:00:23;-3276.50;71.10
38514;DHT22;24282;48.400;10.808;2023-03-12T02:02:54;-3276.50;70.90
38514;DHT22;24282;48.400;10.808;2023-03-12T02:07:59;-3276.50;71.00
38514;DHT22;24282;48.400;10.808;2023-03-12T02:10:25;-3276.40;70.90
38514;DHT22;24282;48.400;10.808;2023-03-12T02:12:52;-3276.40;70.90
38514;DHT22;24282;48.400;10.808;2023-03-12T02:15:18;-3276.40;71.00
38514;DHT22;24282;48.400;10.808;2023-03-12T02:17:44;-3276.40;71.20
38514;DHT22;24282;48.400;10.808;2023-03-12T02:20:32;-3276.40;71.30
38514;DHT22;24282;48.400;10.808;2023-03-12T02:25:51;-3276.40;71.70
38514;DHT22;24282;48.400;10.808;2023-03-12T02:28:20;-3276.40;71.70
38514;DHT22;24282;48.400;10.808;2023-03-12T02:30:50;-3276.30;71.80
38514;DHT22;24282;48.400;10.808;2023-03-12T02:33:17;-3276.40;72.00
38514;DHT22;24282;48.400;10.808;2023-03-12T02:35:45;-3276.30;71.90
38514;DHT22;24282;48.400;10.808;2023-03-12T02:38:45;-3276.30;72.00
38514;DHT22;24282;48.400;10.808;2023-03-12T02:47:02;-3276.20;72.30
38514;DHT22;24282;48.400;10.808;2023-03-12T02:49:30;-3276.30;72.50
38514;DHT22;24282;48.400;10.808;2023-03-12T02:51:57;-3276.30;72.70
38514;DHT22;24282;48.400;10.808;2023-03-12T02:54:25;-3276.30;72.80
38514;DHT22;24282;48.400;10.808;2023-03-12T02:56:51;-3276.30;72.80
38514;DHT22;24282;48.400;10.808;2023-03-12T02:59:18;-3276.30;72.90
38514;DHT22;24282;48.400;10.808;2023-03-12T03:01:51;-3276.40;73.00
38514;DHT22;24282;48.400;10.808;2023-03-12T03:04:17;-3276.40;72.90
38514;DHT22;24282;48.400;10.808;2023-03-12T03:06:43;-3276.40;72.80
38514;DHT22;24282;48.400;10.808;2023-03-12T03:09:09;-3276.40;72.70
38514;DHT22;24282;48.400;10.808;2023-03-12T03:11:35;-3276.40;72.70
38514;DHT22;24282;48.400;10.808;2023-03-12T03:14:02;-3276.40;72.80
38514;DHT22;24282;48.400;10.808;2023-03-12T03:16:29;-3276.40;72.90
38514;DHT22;24282;48.400;10.808;2023-03-12T03:18:56;-3276.50;72.80
38514;DHT22;24282;48.400;10.808;2023-03-12T03:21:21;-3276.50;72.90
38514;DHT22;24282;48.400;10.808;2023-03-12T03:23:48;-3276.60;72.90
38514;DHT22;24282;48.400;10.808;2023-03-12T03:26:17;-3276.60;72.80
38514;DHT22;24282;48.400;10.808;2023-03-12T03:28:43;-3276.60;72.90
38514;DHT22;24282;48.400;10.808;2023-03-12T03:31:09;-3276.60;73.00
38514;DHT22;24282;48.400;10.808;2023-03-12T03:33:38;-3276.60;73.00
38514;DHT22;24282;48.400;10.808;2023-03-12T03:36:13;-3276.60;73.00
38514;DHT22;24282;48.400;10.808;2023-03-12T03:38:46;-3276.70;73.00
38514;DHT22;24282;48.400;10.808;2023-03-12T03:41:19;-3276.70;73.10
38514;DHT22;24282;48.400;10.808;2023-03-12T03:43:45;-3276.70;73.20
38514;DHT22;24282;48.400;10.808;2023-03-12T03:46:13;-3276.70;73.20
38514;DHT22;24282;48.400;10.808;2023-03-12T03:48:41;-3276.70;73.10
38514;DHT22;24282;48.400;10.808;2023-03-12T03:51:09;-3276.70;73.20
38514;DHT22;24282;48.400;10.808;2023-03-12T03:53:39;0.00;73.20
38514;DHT22;24282;48.400;10.808;2023-03-12T03:56:10;0.00;73.40
38514;DHT22;24282;48.400;10.808;2023-03-12T03:58:38;0.00;73.40
38514;DHT22;24282;48.400;10.808;2023-03-12T04:01:04;0.00;73.60
38514;DHT22;24282;48.400;10.808;2023-03-12T04:03:31;0.00;73.80
38514;DHT22;24282;48.400;10.808;2023-03-12T04:06:02;0.00;73.90
38514;DHT22;24282;48.400;10.808;2023-03-12T04:08:31;0.00;74.00
38514;DHT22;24282;48.400;10.808;2023-03-12T04:11:07;0.00;74.00
38514;DHT22;24282;48.400;10.808;2023-03-12T04:13:33;0.00;74.00
38514;DHT22;24282;48.400;10.808;2023-03-12T04:15:59;0.00;74.20
38514;DHT22;24282;48.400;10.808;2023-03-12T04:18:24;0.00;74.00
38514;DHT22;24282;48.400;10.808;2023-03-12T04:20:51;0.00;74.00
38514;DHT22;24282;48.400;10.808;2023-03-12T04:23:17;0.00;74.10
38514;DHT22;24282;48.400;10.808;2023-03-12T04:25:43;0.00;74.20
38514;DHT22;24282;48.400;10.808;2023-03-12T04:28:08;0.00;74.10
38514;DHT22;24282;48.400;10.808;2023-03-12T04:30:36;0.00;74.20
38514;DHT22;24282;48.400;10.808;2023-03-12T04:33:04;0.10;74.30
38514;DHT22;24282;48.400;10.808;2023-03-12T04:35:30;0.10;74.40
38514;DHT22;24282;48.400;10.808;2023-03-12T04:37:57;0.10;74.50
38514;DHT22;24282;48.400;10.808;2023-03-12T04:40:23;0.10;74.50
38514;DHT22;24282;48.400;10.808;2023-03-12T04:42:49;0.10;74.60
38514;DHT22;24282;48.400;10.808;2023-03-12T04:45:16;0.10;74.70
38514;DHT22;24282;48.400;10.808;2023-03-12T04:47:44;0.10;74.90
38514;DHT22;24282;48.400;10.808;2023-03-12T04:50:11;0.10;75.00
38514;DHT22;24282;48.400;10.808;2023-03-12T04:52:38;0.20;75.10
38514;DHT22;24282;48.400;10.808;2023-03-12T04:55:05;0.10;75.20
38514;DHT22;24282;48.400;10.808;2023-03-12T04:57:31;0.20;75.20
38514;DHT22;24282;48.400;10.808;2023-03-12T04:59:57;0.10;75.30
38514;DHT22;24282;48.400;10.808;2023-03-12T05:02:25;0.20;75.40
38514;DHT22;24282;48.400;10.808;2023-03-12T05:04:55;0.20;75.50
38514;DHT22;24282;48.400;10.808;2023-03-12T05:07:21;0.20;75.60
38514;DHT22;24282;48.400;10.808;2023-03-12T05:09:47;0.20;75.70
38514;DHT22;24282;48.400;10.808;2023-03-12T05:12:13;0.20;75.80
38514;DHT22;24282;48.400;10.808;2023-03-12T05:14:39;0.20;75.80
38514;DHT22;24282;48.400;10.808;2023-03-12T05:17:05;0.20;75.90
38514;DHT22;24282;48.400;10.808;2023-03-12T05:19:33;0.20;76.00
38514;DHT22;24282;48.400;10.808;2023-03-12T05:21:58;0.20;76.10
38514;DHT22;24282;48.400;10.808;2023-03-12T05:24:24;0.20;76.20
38514;DHT22;24282;48.400;10.808;2023-03-12T05:26:50;0.20;76.40
38514;DHT22;24282;48.400;10.808;2023-03-12T05:29:20;0.20;76.40
38514;DHT22;24282;48.400;10.808;2023-03-12T05:31:47;0.30;76.40
38514;DHT22;24282;48.400;10.808;2023-03-12T05:34:13;0.30;76.50
38514;DHT22;24282;48.400;10.808;2023-03-12T05:36:41;0.30;76.50
38514;DHT22;24282;48.400;10.808;2023-03-12T05:39:07;0.40;76.60
38514;DHT22;24282;48.400;10.808;2023-03-12T05:41:34;0.30;76.70
38514;DHT22;24282;48.400;10.808;2023-03-12T05:44:05;0.40;76.80
38514;DHT22;24282;48.400;10.808;2023-03-12T05:46:31;0.40;76.80
38514;DHT22;24282;48.400;10.808;2023-03-12T05:48:58;0.40;76.90
38514;DHT22;24282;48.400;10.808;2023-03-12T05:51:25;0.50;76.90
38514;DHT22;24282;48.400;10.808;2023-03-12T05:53:51;0.50;76.70
38514;DHT22;24282;48.400;10.808;2023-03-12T05:56:17;0.50;76.90
38514;DHT22;24282;48.400;10.808;2023-03-12T05:58:44;0.50;77.00
38514;DHT22;24282;48.400;10.808;2023-03-12T06:01:15;0.50;77.00
38514;DHT22;24282;48.400;10.808;2023-03-12T06:03:42;0.50;76.90
38514;DHT22;24282;48.400;10.808;2023-03-12T06:06:08;0.60;77.00
38514;DHT22;24282;48.400;10.808;2023-03-12T06:08:34;0.60;77.00
38514;DHT22;24282;48.400;10.808;2023-03-12T06:11:00;0.60;76.90
38514;DHT22;24282;48.400;10.808;2023-03-12T06:13:26;0.60;77.00
38514;DHT22;24282;48.400;10.808;2023-03-12T06:15:55;0.60;77.10
38514;DHT22;24282;48.400;10.808;2023-03-12T06:18:25;0.60;77.40
38514;DHT22;24282;48.400;10.808;2023-03-12T06:20:51;0.70;77.50
38514;DHT22;24282;48.400;10.808;2023-03-12T06:23:17;0.70;77.70
38514;DHT22;24282;48.400;10.808;2023-03-12T06:25:44;0.70;77.90
38514;DHT22;24282;48.400;10.808;2023-03-12T06:28:09;0.70;77.90
38514;DHT22;24282;48.400;10.808;2023-03-12T06:30:35;0.70;77.90
38514;DHT22;24282;48.400;10.808;2023-03-12T06:33:01;0.70;78.00
38514;DHT22;24282;48.400;10.808;2023-03-12T06:35:29;0.80;78.00
38514;DHT22;24282;48.400;10.808;2023-03-12T06:37:54;0.80;78.10
38514;DHT22;24282;48.400;10.808;2023-03-12T06:40:20;0.80;78.30
38514;DHT22;24282;48.400;10.808;2023-03-12T06:42:46;0.80;78.40
38514;DHT22;24282;48.400;10.808;2023-03-12T06:45:12;0.90;78.40
38514;DHT22;24282;48.400;10.808;2023-03-12T06:47:37;0.90;78.30
38514;DHT22;24282;48.400;10.808;2023-03-12T06:50:03;1.00;78.10
38514;DHT22;24282;48.400;10.808;2023-03-12T06:52:29;1.00;78.40
38514;DHT22;24282;48.400;10.808;2023-03-12T06:54:55;1.10;78.50
38514;DHT22;24282;48.400;10.808;2023-03-12T06:57:20;1.10;78.50
38514;DHT22;24282;48.400;10.808;2023-03-12T06:59:46;1.20;78.60
38514;DHT22;24282;48.400;10.808;2023-03-12T07:02:12;1.20;78.50
38514;DHT22;24282;48.400;10.808;2023-03-12T07:04:37;1.30;78.30
38514;DHT22;24282;48.400;10.808;2023-03-12T07:07:03;1.30;78.40
38514;DHT22;24282;48.400;10.808;2023-03-12T07:09:29;1.30;78.60
38514;DHT22;24282;48.400;10.808;2023-03-12T07:11:55;1.40;78.40
38514;DHT22;24282;48.400;10.808;2023-03-12T07:14:21;1.50;78.30
38514;DHT22;24282;48.400;10.808;2023-03-12T07:16:47;1.50;78.80
38514;DHT22;24282;48.400;10.808;2023-03-12T07:19:13;1.60;79.00
38514;DHT22;24282;48.400;10.808;2023-03-12T07:21:38;1.60;79.10
38514;DHT22;24282;48.400;10.808;2023-03-12T07:24:04;1.70;79.00
38514;DHT22;24282;48.400;10.808;2023-03-12T07:26:33;1.70;78.90
38514;DHT22;24282;48.400;10.808;2023-03-12T07:29:00;1.70;79.00
38514;DHT22;24282;48.400;10.808;2023-03-12T07:31:26;1.80;79.10
38514;DHT22;24282;48.400;10.808;2023-03-12T07:33:51;1.80;79.00
38514;DHT22;24282;48.400;10.808;2023-03-12T07:36:17;1.90;78.90
38514;DHT22;24282;48.400;10.808;2023-03-12T07:38:43;2.00;78.90
38514;DHT22;24282;48.400;10.808;2023-03-12T07:41:09;2.00;78.90
38514;DHT22;24282;48.400;10.808;2023-03-12T07:43:34;2.10;78.90
38514;DHT22;24282;48.400;10.808;2023-03-12T07:46:00;2.20;78.80
38514;DHT22;24282;48.400;10.808;2023-03-12T07:48:26;2.20;78.70
38514;DHT22;24282;48.400;10.808;2023-03-12T07:50:51;2.30;78.60
38514;DHT22;24282;48.400;10.808;2023-03-12T07:53:17;2.30;78.60
38514;DHT22;24282;48.400;10.808;2023-03-12T07:55:44;2.40;78.70
38514;DHT22;24282;48.400;10.808;2023-03-12T07:58:10;2.50;78.70
38514;DHT22;24282;48.400;10.808;2023-03-12T08:00:37;2.50;78.70
38514;DHT22;24282;48.400;10.808;2023-03-12T08:03:03;2.70;78.80
38514;DHT22;24282;48.400;10.808;2023-03-12T08:05:29;2.70;78.90
38514;DHT22;24282;48.400;10.808;2023-03-12T08:07:55;2.80;78.90
38514;DHT22;24282;48.400;10.808;2023-03-12T08:10:21;2.80;78.90
38514;DHT22;24282;48.400;10.808;2023-03-12T08:12:47;2.90;78.90
38514;DHT22;24282;48.400;10.808;2023-03-12T08:15:13;2.90;79.10
38514;DHT22;24282;48.400;10.808;2023-03-12T08:17:39;2.90;79.30
38514;DHT22;24282;48.400;10.808;2023-03-12T08:20:05;3.00;79.60
38514;DHT22;24282;48.400;10.808;2023-03-12T08:22:38;3.00;79.90
38514;DHT22;24282;48.400;10.808;2023-03-12T08:25:04;3.00;80.30
38514;DHT22;24282;48.400;10.808;2023-03-12T08:27:30;3.00;80.40
38514;DHT22;24282;48.400;10.808;2023-03-12T08:29:56;3.00;80.70
38514;DHT22;24282;48.400;10.808;2023-03-12T08:32:24;3.00;81.10
38514;DHT22;24282;48.400;10.808;2023-03-12T08:34:50;3.10;81.60
38514;DHT22;24282;48.400;10.808;2023-03-12T08:37:15;3.10;81.90
38514;DHT22;24282;48.400;10.808;2023-03-12T08:39:42;3.10;82.20
38514;DHT22;24282;48.400;10.808;2023-03-12T08:42:07;3.10;82.50
38514;DHT22;24282;48.400;10.808;2023-03-12T08:44:33;3.10;82.70
38514;DHT22;24282;48.400;10.808;2023-03-12T08:46:59;3.20;83.00
38514;DHT22;24282;48.400;10.808;2023-03-12T08:49:25;3.20;83.30
38514;DHT22;24282;48.400;10.808;2023-03-12T08:51:51;3.20;83.50
38514;DHT22;24282;48.400;10.808;2023-03-12T08:54:18;3.20;83.90
38514;DHT22;24282;48.400;10.808;2023-03-12T08:56:43;3.20;84.10
38514;DHT22;24282;48.400;10.808;2023-03-12T08:59:12;3.20;84.40
38514;DHT22;24282;48.400;10.808;2023-03-12T09:01:39;3.20;84.60
38514;DHT22;24282;48.400;10.808;2023-03-12T09:04:05;3.20;84.90
38514;DHT22;24282;48.400;10.808;2023-03-12T09:06:31;3.30;85.00
38514;DHT22;24282;48.400;10.808;2023-03-12T09:08:59;3.30;85.20
38514;DHT22;24282;48.400;10.808;2023-03-12T09:11:31;3.30;85.30
38514;DHT22;24282;48.400;10.808;2023-03-12T09:13:57;3.40;85.50
38514;DHT22;24282;48.400;10.808;2023-03-12T09:16:23;3.40;85.70
38514;DHT22;24282;48.400;10.808;2023-03-12T09:18:49;3.40;85.90
38514;DHT22;24282;48.400;10.808;2023-03-12T09:21:15;3.50;86.00
38514;DHT22;24282;48.400;10.808;2023-03-12T09:23:40;3.50;86.20
38514;DHT22;24282;48.400;10.808;2023-03-12T09:26:10;3.50;86.20
38514;DHT22;24282;48.400;10.808;2023-03-12T09:28:36;3.50;86.40
38514;DHT22;24282;48.400;10.808;2023-03-12T09:31:03;3.50;86.60
38514;DHT22;24282;48.400;10.808;2023-03-12T09:33:30;3.60;86.80
38514;DHT22;24282;48.400;10.808;2023-03-12T09:35:59;3.60;86.90
38514;DHT22;24282;48.400;10.808;2023-03-12T09:38:25;3.60;87.10
38514;DHT22;24282;48.400;10.808;2023-03-12T09:40:51;3.70;87.20
38514;DHT22;24282;48.400;10.808;2023-03-12T09:45:57;3.80;87.50
38514;DHT22;24282;48.400;10.808;2023-03-12T09:48:35;3.90;87.60
38514;DHT22;24282;48.400;10.808;2023-03-12T09:51:32;3.90;87.80
38514;DHT22;24282;48.400;10.808;2023-03-12T09:54:03;4.00;88.00
38514;DHT22;24282;48.400;10.808;2023-03-12T09:56:32;4.00;88.20
38514;DHT22;24282;48.400;10.808;2023-03-12T09:58:57;4.00;88.20
38514;DHT22;24282;48.400;10.808;2023-03-12T10:04:23;4.10;88.40
38514;DHT22;24282;48.400;10.808;2023-03-12T10:06:53;4.10;88.40
38514;DHT22;24282;48.400;10.808;2023-03-12T10:09:44;4.20;88.50
38514;DHT22;24282;48.400;10.808;2023-03-12T10:12:42;4.20;88.50
38514;DHT22;24282;48.400;10.808;2023-03-12T10:16:00;4.30;88.60
38514;DHT22;24282;48.400;10.808;2023-03-12T10:26:51;4.70;89.10
38514;DHT22;24282;48.400;10.808;2023-03-12T10:29:25;4.90;89.00
38514;DHT22;24282;48.400;10.808;2023-03-12T10:32:03;5.00;89.10
38514;DHT22;24282;48.400;10.808;2023-03-12T10:35:17;5.10;88.70
38514;DHT22;24282;48.400;10.808;2023-03-12T10:37:22;5.20;88.70
38514;DHT22;24282;48.400;10.808;2023-03-12T10:39:50;5.30;88.70
38514;DHT22;24282;48.400;10.808;2023-03-12T10:42:22;5.40;88.40
38514;DHT22;24282;48.400;10.808;2023-03-12T10:44:59;5.40;88.20
38514;DHT22;24282;48.400;10.808;2023-03-12T10:47:39;5.30;88.00
38514;DHT22;24282;48.400;10.808;2023-03-12T10:50:27;5.30;88.10
38514;DHT22;24282;48.400;10.808;2023-03-12T10:55:38;5.20;88.40
38514;DHT22;24282;48.400;10.808;2023-03-12T10:58:03;5.20;88.70
38514;DHT22;24282;48.400;10.808;2023-03-12T11:00:30;5.20;88.90
38514;DHT22;24282;48.400;10.808;2023-03-12T11:03:03;5.30;89.10
38514;DHT22;24282;48.400;10.808;2023-03-12T11:05:55;5.30;89.40
38514;DHT22;24282;48.400;10.808;2023-03-12T11:08:26;5.40;89.60
38514;DHT22;24282;48.400;10.808;2023-03-12T11:10:53;5.50;89.90
38514;DHT22;24282;48.400;10.808;2023-03-12T11:16:01;5.60;90.10
38514;DHT22;24282;48.400;10.808;2023-03-12T11:18:35;5.70;90.00
38514;DHT22;24282;48.400;10.808;2023-03-12T11:21:12;5.70;90.10
38514;DHT22;24282;48.400;10.808;2023-03-12T11:24:06;5.80;89.90
38514;DHT22;24282;48.400;10.808;2023-03-12T11:32:05;5.90;90.40
38514;DHT22;24282;48.400;10.808;2023-03-12T11:34:37;5.90;90.40
38514;DHT22;24282;48.400;10.808;2023-03-12T11:40:11;6.20;90.70
38514;DHT22;24282;48.400;10.808;2023-03-12T11:45:32;6.40;90.80
38514;DHT22;24282;48.400;10.808;2023-03-12T11:51:18;6.50;90.80
38514;DHT22;24282;48.400;10.808;2023-03-12T11:56:48;6.80;90.60
38514;DHT22;24282;48.400;10.808;2023-03-12T12:01:55;7.00;90.70
38514;DHT22;24282;48.400;10.808;2023-03-12T12:10:54;7.30;89.70
38514;DHT22;24282;48.400;10.808;2023-03-12T12:13:17;7.40;89.70
38514;DHT22;24282;48.400;10.808;2023-03-12T12:21:33;7.70;88.70
38514;DHT22;24282;48.400;10.808;2023-03-12T12:24:18;7.70;88.60
38514;DHT22;24282;48.400;10.808;2023-03-12T12:40:45;7.60;88.40
38514;DHT22;24282;48.400;10.808;2023-03-12T12:45:47;7.70;89.00
38514;DHT22;24282;48.400;10.808;2023-03-12T12:48:21;7.70;89.00
38514;DHT22;24282;48.400;10.808;2023-03-12T12:50:51;7.70;88.70
38514;DHT22;24282;48.400;10.808;2023-03-12T12:53:24;7.70;88.40
38514;DHT22;24282;48.400;10.808;2023-03-12T12:55:53;7.80;88.10
38514;DHT22;24282;48.400;10.808;2023-03-12T12:58:25;7.80;88.20
38514;DHT22;24282;48.400;10.808;2023-03-12T13:00:58;7.90;87.90
38514;DHT22;24282;48.400;10.808;2023-03-12T13:03:25;7.90;88.20
38514;DHT22;24282;48.400;10.808;2023-03-12T13:13:42;8.90;85.80
38514;DHT22;24282;48.400;10.808;2023-03-12T13:16:42;9.20;84.90
38514;DHT22;24282;48.400;10.808;2023-03-12T13:21:40;9.50;83.80
38514;DHT22;24282;48.400;10.808;2023-03-12T13:29:40;9.60;82.70
38514;DHT22;24282;48.400;10.808;2023-03-12T13:35:28;9.50;82.40
38514;DHT22;24282;48.400;10.808;2023-03-12T13:41:03;9.30;83.00
38514;DHT22;24282;48.400;10.808;2023-03-12T13:46:04;9.40;83.30
38514;DHT22;24282;48.400;10.808;2023-03-12T13:48:32;9.40;82.90
38514;DHT22;24282;48.400;10.808;2023-03-12T13:51:09;9.40;82.90
38514;DHT22;24282;48.400;10.808;2023-03-12T13:53:37;9.50;82.90
38514;DHT22;24282;48.400;10.808;2023-03-12T13:56:10;9.50;81.80
38514;DHT22;24282;48.400;10.808;2023-03-12T13:59:03;9.50;81.90
38514;DHT22;24282;48.400;10.808;2023-03-12T14:01:35;9.50;79.90
38514;DHT22;24282;48.400;10.808;2023-03-12T14:04:05;9.60;78.10
38514;DHT22;24282;48.400;10.808;2023-03-12T14:06:46;9.60;78.30
38514;DHT22;24282;48.400;10.808;2023-03-12T14:09:33;9.70;77.70
38514;DHT22;24282;48.400;10.808;2023-03-12T14:12:08;9.80;76.70
38514;DHT22;24282;48.400;10.808;2023-03-12T14:15:14;10.00;74.70
38514;DHT22;24282;48.400;10.808;2023-03-12T14:17:42;10.00;75.00
38514;DHT22;24282;48.400;10.808;2023-03-12T14:20:21;10.00;74.50
38514;DHT22;24282;48.400;10.808;2023-03-12T14:22:54;10.10;74.40
38514;DHT22;24282;48.400;10.808;2023-03-12T14:25:43;10.00;73.70
38514;DHT22;24282;48.400;10.808;2023-03-12T14:28:14;10.00;74.60
38514;DHT22;24282;48.400;10.808;2023-03-12T14:36:51;10.00;75.00
38514;DHT22;24282;48.400;10.808;2023-03-12T14:39:26;10.00;75.10
38514;DHT22;24282;48.400;10.808;2023-03-12T14:41:58;10.00;75.00
38514;DHT22;24282;48.400;10.808;2023-03-12T14:44:29;10.00;75.30
38514;DHT22;24282;48.400;10.808;2023-03-12T14:47:09;10.00;76.00
38514;DHT22;24282;48.400;10.808;2023-03-12T14:49:41;9.90;76.50
38514;DHT22;24282;48.400;10.808;2023-03-12T14:52:11;9.90;77.00
38514;DHT22;24282;48.400;10.808;2023-03-12T14:54:37;9.80;77.20
38514;DHT22;24282;48.400;10.808;2023-03-12T14:57:05;9.90;77.50
38514;DHT22;24282;48.400;10.808;2023-03-12T14:59:33;9.90;77.40
38514;DHT22;24282;48.400;10.808;2023-03-12T15:02:13;9.80;77.40
38514;DHT22;24282;48.400;10.808;2023-03-12T15:04:42;9.70;78.00
38514;DHT22;24282;48.400;10.808;2023-03-12T15:07:13;9.70;78.30
38514;DHT22;24282;48.400;10.808;2023-03-12T15:09:45;9.70;78.10
38514;DHT22;24282;48.400;10.808;2023-03-12T15:12:23;9.60;78.30
38514;DHT22;24282;48.400;10.808;2023-03-12T15:14:59;9.60;78.40
38514;DHT22;24282;48.400;10.808;2023-03-12T15:17:28;9.70;78.10
38514;DHT22;24282;48.400;10.808;2023-03-12T15:19:55;9.70;77.90
38514;DHT22;24282;48.400;10.808;2023-03-12T15:22:23;9.70;78.40
38514;DHT22;24282;48.400;10.808;2023-03-12T15:24:54;9.60;78.70
38514;DHT22;24282;48.400;10.808;2023-03-12T15:29:57;9.50;79.30
38514;DHT22;24282;48.400;10.808;2023-03-12T15:32:25;9.50;79.80
38514;DHT22;24282;48.400;10.808;2023-03-12T15:34:52;9.50;79.80
38514;DHT22;24282;48.400;10.808;2023-03-12T15:37:33;9.50;79.80
38514;DHT22;24282;48.400;10.808;2023-03-12T15:40:27;9.60;79.50
38514;DHT22;24282;48.400;10.808;2023-03-12T15:42:55;9.60;79.30
38514;DHT22;24282;48.400;10.808;2023-03-12T15:45:36;9.60;78.60
38514;DHT22;24282;48.400;10.808;2023-03-12T15:48:11;9.60;78.80
38514;DHT22;24282;48.400;10.808;2023-03-12T15:50:43;9.50;78.80
38514;DHT22;24282;48.400;10.808;2023-03-12T15:55:38;9.50;78.80
38514;DHT22;24282;48.400;10.808;2023-03-12T15:58:28;9.40;78.80
38514;DHT22;24282;48.400;10.808;2023-03-12T16:03:34;9.50;78.80
38514;DHT22;24282;48.400;10.808;2023-03-12T16:06:00;9.50;78.90
38514;DHT22;24282;48.400;10.808;2023-03-12T16:10:59;9.50;78.70
38514;DHT22;24282;48.400;10.808;2023-03-12T16:13:28;9.50;78.50
38514;DHT22;24282;48.400;10.808;2023-03-12T16:15:56;9.50;78.60
38514;DHT22;24282;48.400;10.808;2023-03-12T16:18:22;9.50;78.70
38514;DHT22;24282;48.400;10.808;2023-03-12T16:20:50;9.50;78.80
38514;DHT22;24282;48.400;10.808;2023-03-12T16:23:16;9.40;79.00
38514;DHT22;24282;48.400;10.808;2023-03-12T16:25:44;9.40;78.80
38514;DHT22;24282;48.400;10.808;2023-03-12T16:28:13;9.40;78.80
38514;DHT22;24282;48.400;10.808;2023-03-12T16:30:40;9.30;78.90
38514;DHT22;24282;48.400;10.808;2023-03-12T16:33:06;9.40;78.50
38514;DHT22;24282;48.400;10.808;2023-03-12T16:35:32;9.40;78.40
38514;DHT22;24282;48.400;10.808;2023-03-12T16:38:02;9.30;78.50
38514;DHT22;24282;48.400;10.808;2023-03-12T16:40:31;9.30;78.50
38514;DHT22;24282;48.400;10.808;2023-03-12T16:42:59;9.20;78.50
38514;DHT22;24282;48.400;10.808;2023-03-12T16:45:28;9.20;78.50
38514;DHT22;24282;48.400;10.808;2023-03-12T16:47:58;9.30;78.50
38514;DHT22;24282;48.400;10.808;2023-03-12T16:50:25;9.30;78.30
38514;DHT22;24282;48.400;10.808;2023-03-12T16:52:51;9.20;78.60
38514;DHT22;24282;48.400;10.808;2023-03-12T16:55:22;9.20;78.70
38514;DHT22;24282;48.400;10.808;2023-03-12T16:57:58;9.10;78.80
38514;DHT22;24282;48.400;10.808;2023-03-12T17:00:33;9.10;79.00
38514;DHT22;24282;48.400;10.808;2023-03-12T17:02:59;9.10;78.90
38514;DHT22;24282;48.400;10.808;2023-03-12T17:05:29;9.00;79.10
38514;DHT22;24282;48.400;10.808;2023-03-12T17:07:56;9.00;79.20
38514;DHT22;24282;48.400;10.808;2023-03-12T17:10:22;8.90;79.30
38514;DHT22;24282;48.400;10.808;2023-03-12T17:12:49;8.80;79.50
38514;DHT22;24282;48.400;10.808;2023-03-12T17:15:21;8.80;79.70
38514;DHT22;24282;48.400;10.808;2023-03-12T17:17:48;8.70;79.70
38514;DHT22;24282;48.400;10.808;2023-03-12T17:20:19;8.70;79.80
38514;DHT22;24282;48.400;10.808;2023-03-12T17:22:45;8.70;79.80
38514;DHT22;24282;48.400;10.808;2023-03-12T17:25:23;8.70;79.60
38514;DHT22;24282;48.400;10.808;2023-03-12T17:27:49;8.60;79.70
38514;DHT22;24282;48.400;10.808;2023-03-12T17:30:15;8.60;79.80
38514;DHT22;24282;48.400;10.808;2023-03-12T17:32:41;8.60;79.90
38514;DHT22;24282;48.400;10.808;2023-03-12T17:35:07;8.60;80.00
38514;DHT22;24282;48.400;10.808;2023-03-12T17:37:33;8.60;80.00
38514;DHT22;24282;48.400;10.808;2023-03-12T17:39:59;8.50;80.10